Time;durP1;ratioP1;P1;durP2;ratioP2;P2;SDS_P1;SDS_P2;PMS_P1;PMS_P2;Temp;Humidity;BMP_temperature;BMP_pressure;BME280_temperature;BME280_humidity;BME280_pressure;Samples;Min_cycle;Max_cycle;Signal;HPM_P1;HPM_P2
2021/04/17 07:20:17;;;;;;;19.93;12.37;;;5.00;99.90;;;;;;600522;23;20321;-92
2021/04/17 07:22:43;;;;;;;20.40;12.07;;;5.20;99.90;;;;;;4981181;28;20050;-92
2021/04/17 07:25:09;;;;;;;19.03;11.83;;;5.50;99.90;;;;;;4990640;28;20023;-92
2021/04/17 07:27:48;;;;;;;20.63;11.57;;;5.90;99.90;;;;;;4996357;28;20010;-94
2021/04/17 07:30:17;;;;;;;20.43;12.27;;;6.10;99.90;;;;;;4976815;28;20042;-91
2021/04/17 07:33:01;;;;;;;21.47;11.93;;;6.20;99.90;;;;;;4976344;28;20167;-92
2021/04/17 07:35:36;;;;;;;18.70;11.57;;;6.20;99.90;;;;;;4973374;28;20046;-90
2021/04/17 07:38:23;;;;;;;19.77;11.97;;;6.70;99.90;;;;;;4966177;28;20459;-93
2021/04/17 07:41:10;;;;;;;20.77;12.43;;;6.60;99.90;;;;;;4965522;28;20090;-92
2021/04/17 07:44:02;;;;;;;18.83;11.80;;;6.90;99.90;;;;;;4965238;28;20178;-93
2021/04/17 07:46:40;;;;;;;20.50;11.10;;;7.00;99.90;;;;;;4961274;28;20177;-92
2021/04/17 07:49:13;;;;;;;19.07;10.93;;;7.40;99.90;;;;;;4957950;29;20034;-93
2021/04/17 07:51:58;;;;;;;15.60;9.57;;;7.40;99.90;;;;;;4968055;28;20062;-92
2021/04/17 07:54:24;;;;;;;16.20;9.87;;;7.50;99.90;;;;;;4979149;28;20102;-93
2021/04/17 07:56:50;;;;;;;17.07;10.50;;;7.70;99.90;;;;;;4964453;28;20031;-92
2021/04/17 07:59:21;;;;;;;17.07;10.17;;;7.90;99.90;;;;;;4962967;28;20015;-92
2021/04/17 08:01:49;;;;;;;15.43;8.97;;;8.20;99.90;;;;;;4952887;28;20058;-92
2021/04/17 08:04:23;;;;;;;13.80;8.67;;;8.10;99.90;;;;;;4964206;28;20106;-90
2021/04/17 08:06:49;;;;;;;18.53;9.57;;;8.00;99.90;;;;;;4974598;28;20010;-92
2021/04/17 08:09:16;;;;;;;17.97;9.50;;;8.10;99.90;;;;;;4962601;28;20022;-93
2021/04/17 08:11:45;;;;;;;13.47;8.30;;;8.40;99.90;;;;;;4978495;28;20026;-93
2021/04/17 08:14:11;;;;;;;11.87;7.73;;;8.20;99.90;;;;;;4968816;28;20058;-92
2021/04/17 08:16:39;;;;;;;13.48;8.38;;;8.20;99.90;;;;;;4963557;28;20027;-93
2021/04/17 08:19:10;;;;;;;13.90;7.85;;;8.30;99.90;;;;;;4968266;28;20011;-91
2021/04/17 08:21:36;;;;;;;15.80;9.25;;;8.40;99.90;;;;;;4975211;28;20051;-93
2021/04/17 08:24:53;;;;;;;14.65;9.07;;;8.40;99.90;;;;;;5079892;23;20068;-94
2021/04/17 08:27:23;;;;;;;13.40;8.10;;;8.40;99.90;;;;;;4969814;28;20094;-94
2021/04/17 08:35:40;;;;;;;12.63;7.72;;;8.70;99.90;;;;;;5647124;23;20044;-94
2021/04/17 08:38:24;;;;;;;16.40;8.10;;;9.10;99.80;;;;;;5032622;28;20065;-94
2021/04/17 09:31:05;;;;;;;10.43;6.78;;;9.90;93.20;;;;;;5030044;28;20038;-93
2021/04/17 10:35:34;;;;;;;8.57;4.70;;;9.40;90.30;;;;;;5023715;28;20065;-93
2021/04/17 10:38:00;;;;;;;8.25;4.70;;;9.70;88.10;;;;;;5020916;28;20389;-93
2021/04/17 10:40:26;;;;;;;8.70;4.75;;;9.60;86.80;;;;;;5016198;28;20076;-92
2021/04/17 10:43:05;;;;;;;8.63;4.97;;;9.90;86.20;;;;;;5013919;28;20029;-90
2021/04/17 10:45:30;;;;;;;8.57;4.82;;;9.80;86.00;;;;;;5014869;28;20029;-92
2021/04/17 10:48:13;;;;;;;9.32;4.75;;;9.80;85.30;;;;;;5007220;28;20080;-93
2021/04/17 10:50:40;;;;;;;;;;;9.90;85.80;;;;;;5013067;28;20044;-92
2021/04/17 10:53:14;;;;;;;12.00;5.13;;;10.00;84.80;;;;;;5022371;28;19913;-93
2021/04/17 10:55:49;;;;;;;7.95;4.45;;;10.10;84.40;;;;;;5024138;28;20021;-93
2021/04/17 10:58:23;;;;;;;10.77;5.28;;;10.20;83.20;;;;;;5024431;28;20026;-92
2021/04/17 11:01:13;;;;;;;9.18;4.70;;;10.20;82.30;;;;;;5017928;28;20017;-92
2021/04/17 11:03:51;;;;;;;8.38;4.85;;;10.30;83.00;;;;;;5019727;28;20017;-91
2021/04/17 11:06:19;;;;;;;11.05;4.30;;;10.60;81.70;;;;;;5018518;28;20078;-92
2021/04/17 11:08:47;;;;;;;10.63;5.03;;;10.80;80.50;;;;;;5010990;28;20029;-93
2021/04/17 11:11:14;;;;;;;7.88;4.40;;;10.80;79.50;;;;;;4997154;28;20033;-93
2021/04/17 11:21:24;;;;;;;8.75;3.58;;;10.60;77.50;;;;;;5038365;28;20041;-92
2021/04/17 11:23:56;;;;;;;10.00;4.30;;;10.60;78.40;;;;;;5026848;28;20097;-93
2021/04/17 11:26:43;;;;;;;6.95;3.65;;;10.60;79.30;;;;;;5022527;28;20021;-94
2021/04/17 11:29:09;;;;;;;7.30;3.50;;;10.50;78.30;;;;;;5212393;23;20042;-90
2021/04/17 11:31:38;;;;;;;9.13;3.60;;;10.70;77.50;;;;;;5003352;28;20021;-92
2021/04/17 11:39:21;;;;;;;6.50;3.85;;;10.60;76.90;;;;;;5049298;22;20050;-93
2021/04/17 11:42:10;;;;;;;12.05;3.88;;;11.00;76.50;;;;;;5016859;28;20074;-92
2021/04/17 14:31:32;;;;;;;7.68;2.00;;;11.60;59.60;;;;;;5043254;28;20022;-94
2021/04/17 14:33:58;;;;;;;10.90;2.05;;;11.50;59.80;;;;;;5030749;28;20042;-95
2021/04/17 14:36:24;;;;;;;4.47;1.80;;;11.30;61.30;;;;;;5028235;28;20017;-91
2021/04/17 14:38:52;;;;;;;4.97;2.20;;;11.30;61.70;;;;;;5014273;28;20052;-91
2021/04/17 14:41:19;;;;;;;4.45;1.85;;;11.20;61.90;;;;;;4997726;28;20034;-91
2021/04/17 14:43:44;;;;;;;3.72;1.70;;;11.20;62.90;;;;;;5015173;28;20040;-94
2021/04/17 14:46:10;;;;;;;7.55;1.75;;;11.30;63.00;;;;;;5021165;28;20033;-95
2021/04/17 14:48:37;;;;;;;4.00;1.63;;;11.80;62.20;;;;;;5023138;28;20086;-93
2021/04/17 14:51:04;;;;;;;4.38;1.83;;;11.70;60.80;;;;;;5022189;28;20037;-93
2021/04/17 14:53:30;;;;;;;4.13;1.88;;;11.60;61.30;;;;;;5013702;28;20137;-92
2021/04/17 14:55:56;;;;;;;5.85;2.42;;;11.40;62.00;;;;;;5024032;28;20050;-91
2021/04/17 14:58:21;;;;;;;4.63;1.48;;;11.40;63.10;;;;;;5021791;28;20029;-93
2021/04/17 15:00:48;;;;;;;3.50;1.63;;;11.40;62.90;;;;;;5023107;28;20033;-95
2021/04/17 15:03:13;;;;;;;3.50;1.50;;;11.30;62.20;;;;;;5022996;28;20018;-92
2021/04/17 15:05:39;;;;;;;3.78;1.60;;;11.10;63.70;;;;;;5033124;28;20140;-93
2021/04/17 15:08:05;;;;;;;4.88;1.92;;;11.10;64.20;;;;;;5029792;28;20218;-94
2021/04/17 15:10:32;;;;;;;6.10;1.90;;;11.10;64.90;;;;;;5033336;28;20044;-93
2021/04/17 16:15:56;;;;;;;;;;;;;;;;;;;;;
2021/04/17 16:18:22;;;;;;;3.95;1.85;;;10.00;76.90;;;;;;5028414;28;20018;-94
2021/04/17 16:20:48;;;;;;;4.05;1.70;;;10.10;77.50;;;;;;5022338;28;20042;-91
2021/04/17 16:23:14;;;;;;;5.88;1.92;;;9.80;77.80;;;;;;5022667;28;20026;-93
2021/04/17 16:25:41;;;;;;;4.13;1.67;;;10.00;78.10;;;;;;5012434;28;20022;-94
2021/04/17 16:28:11;;;;;;;4.28;1.73;;;9.80;77.40;;;;;;5021756;28;20066;-93
2021/04/17 16:30:37;;;;;;;3.67;1.65;;;10.00;77.40;;;;;;5025913;28;20029;-93
2021/04/17 16:33:04;;;;;;;4.80;1.70;;;9.80;78.00;;;;;;5026806;28;20125;-93
2021/04/17 16:35:30;;;;;;;5.10;2.00;;;9.70;78.30;;;;;;5021712;28;20040;-94
2021/04/17 16:37:56;;;;;;;8.00;2.08;;;9.80;79.60;;;;;;5022398;28;20077;-92
2021/04/17 16:40:24;;;;;;;5.45;2.00;;;9.60;80.60;;;;;;5000370;28;20117;-92
2021/04/17 16:42:50;;;;;;;6.80;1.77;;;9.50;81.20;;;;;;5000248;28;20038;-92
2021/04/17 16:45:25;;;;;;;5.40;2.10;;;9.50;81.40;;;;;;5006849;28;20038;-93
2021/04/17 16:47:52;;;;;;;3.17;1.52;;;9.40;81.60;;;;;;4993318;28;20038;-90
2021/04/17 16:50:18;;;;;;;7.07;1.90;;;9.50;82.80;;;;;;5013473;28;20026;-93
2021/04/17 16:52:44;;;;;;;5.22;2.20;;;9.50;83.40;;;;;;5021344;28;20058;-92
2021/04/17 16:55:22;;;;;;;6.28;2.33;;;9.40;83.10;;;;;;5026339;28;20120;-95
2021/04/17 16:57:48;;;;;;;10.70;5.25;;;9.30;83.60;;;;;;5149411;22;20068;-95
2021/04/17 17:00:16;;;;;;;9.43;4.25;;;9.20;84.70;;;;;;5058402;28;20047;-93
2021/04/17 17:02:42;;;;;;;5.47;2.10;;;9.00;85.80;;;;;;5062917;28;20025;-95
2021/04/17 17:05:11;;;;;;;5.72;2.28;;;9.00;85.60;;;;;;5049465;28;20040;-95
2021/04/17 17:10:30;;;;;;;7.00;2.00;;;9.00;85.50;;;;;;5318952;23;20049;-93
2021/04/17 17:12:55;;;;;;;4.90;2.28;;;9.20;86.30;;;;;;5048220;28;20085;-92
2021/04/17 17:15:21;;;;;;;6.22;2.50;;;8.80;86.80;;;;;;5030960;28;20015;-93
2021/04/17 17:17:51;;;;;;;9.13;3.70;;;8.70;88.40;;;;;;5171513;23;20034;-93
2021/04/17 17:20:18;;;;;;;7.53;3.08;;;8.90;89.70;;;;;;5019035;28;20022;-93
2021/04/17 17:22:47;;;;;;;5.80;2.22;;;8.70;90.50;;;;;;5019844;28;20085;-92
2021/04/17 17:25:13;;;;;;;6.07;2.60;;;8.80;91.00;;;;;;5016030;28;20032;-93
2021/04/17 17:27:39;;;;;;;5.45;2.47;;;8.40;91.50;;;;;;5045608;28;20014;-91
2021/04/17 17:30:07;;;;;;;9.02;3.33;;;8.40;92.30;;;;;;5023526;28;20258;-92
2021/04/17 17:32:32;;;;;;;7.82;2.80;;;8.40;93.10;;;;;;5017394;28;20029;-91
2021/04/17 17:35:02;;;;;;;6.78;2.33;;;8.10;93.70;;;;;;5014782;28;20180;-94
2021/04/17 17:37:28;;;;;;;6.82;2.70;;;8.20;94.70;;;;;;5023689;28;20018;-93
2021/04/17 17:39:53;;;;;;;5.32;2.47;;;8.10;95.80;;;;;;5015648;28;20022;-94
2021/04/17 17:42:19;;;;;;;5.80;2.28;;;8.00;96.50;;;;;;5015697;28;20029;-93
2021/04/17 17:44:45;;;;;;;5.97;2.08;;;7.90;97.90;;;;;;5021360;28;20030;-93
2021/04/17 17:47:11;;;;;;;7.65;2.67;;;8.00;99.40;;;;;;5025455;28;20025;-94
2021/04/17 17:49:37;;;;;;;8.43;2.75;;;7.80;99.90;;;;;;5023774;28;20053;-94
2021/04/17 17:52:04;;;;;;;5.90;2.80;;;7.70;99.90;;;;;;5016091;28;20152;-93
2021/04/17 17:54:33;;;;;;;7.93;2.53;;;7.70;99.90;;;;;;5019878;28;20046;-93
2021/04/17 17:57:02;;;;;;;6.63;2.47;;;7.80;99.90;;;;;;5020573;28;20018;-94
2021/04/17 17:59:28;;;;;;;6.13;2.47;;;7.60;99.90;;;;;;5017213;28;20026;-93
2021/04/17 18:02:04;;;;;;;;;;;;;;;;;;;;;
2021/04/17 18:04:34;;;;;;;5.57;2.50;;;7.40;99.90;;;;;;5012701;28;20121;-92
2021/04/17 18:07:00;;;;;;;7.07;3.10;;;7.40;99.90;;;;;;5003578;28;20026;-90
2021/04/17 18:09:27;;;;;;;6.47;3.20;;;7.60;99.90;;;;;;5003564;28;20502;-91
2021/04/17 18:17:06;;;;;;;6.35;2.92;;;7.20;99.90;;;;;;5345230;22;20050;-95
2021/04/17 18:19:35;;;;;;;6.80;2.63;;;7.30;99.90;;;;;;5033738;28;20405;-93
2021/04/17 18:22:13;;;;;;;;;;;;;;;;;;;;;
2021/04/17 18:24:44;;;;;;;5.40;2.83;;;7.10;99.90;;;;;;5275361;22;20029;-95
2021/04/17 18:27:14;;;;;;;7.60;2.60;;;7.10;99.90;;;;;;5051795;28;20092;-95
2021/04/17 18:32:19;;;;;;;6.13;3.10;;;6.90;99.90;;;;;;5114453;23;20053;-94
2021/04/17 18:34:45;;;;;;;6.53;3.10;;;6.90;99.90;;;;;;5004771;28;20057;-96
2021/04/17 18:37:14;;;;;;;9.17;3.30;;;7.20;99.90;;;;;;5024140;28;20026;-94
2021/04/17 18:44:52;;;;;;;11.73;6.20;;;6.70;99.90;;;;;;5075863;22;20045;-94
2021/04/17 18:47:18;;;;;;;13.93;6.77;;;6.80;99.90;;;;;;5054545;28;20021;-94
2021/04/17 18:49:50;;;;;;;11.10;6.27;;;6.80;99.90;;;;;;5050472;28;20103;-95
2021/04/17 18:54:51;;;;;;;11.23;5.70;;;6.60;99.90;;;;;;5395308;23;20115;-91
2021/04/17 18:57:18;;;;;;;9.50;5.20;;;6.60;99.90;;;;;;5027663;28;20478;-89
2021/04/17 18:59:44;;;;;;;6.77;4.00;;;6.70;99.90;;;;;;5002641;28;20033;-90
2021/04/17 19:02:10;;;;;;;8.63;3.87;;;6.70;99.90;;;;;;5013655;28;20037;-89
2021/04/17 19:04:36;;;;;;;6.43;3.43;;;6.60;99.90;;;;;;5016128;28;20038;-89
2021/04/17 19:07:03;;;;;;;9.40;3.90;;;6.50;99.90;;;;;;5022536;28;20014;-94
2021/04/17 19:09:29;;;;;;;7.43;3.27;;;6.60;99.90;;;;;;5028184;28;20085;-93
2021/04/17 19:11:55;;;;;;;6.40;3.17;;;6.50;99.90;;;;;;5037610;28;20030;-93
2021/04/17 19:14:20;;;;;;;7.37;3.23;;;6.50;99.90;;;;;;5037988;28;20045;-91
2021/04/17 19:16:47;;;;;;;8.97;3.00;;;6.60;99.90;;;;;;5049881;28;20117;-93
2021/04/17 19:19:13;;;;;;;8.97;3.37;;;6.60;99.90;;;;;;5036318;28;20056;-94
2021/04/17 19:21:39;;;;;;;8.43;3.33;;;6.60;99.90;;;;;;5032363;28;20005;-92
2021/04/17 19:24:12;;;;;;;6.83;3.40;;;6.60;99.90;;;;;;5342090;23;20138;-92
2021/04/17 19:26:38;;;;;;;10.20;3.47;;;6.40;99.90;;;;;;5003234;28;20029;-95
2021/04/17 19:29:05;;;;;;;6.37;3.00;;;6.50;99.90;;;;;;5019515;28;20037;-94
2021/04/17 19:31:31;;;;;;;7.07;3.23;;;6.40;99.90;;;;;;5022513;28;20015;-94
2021/04/17 19:33:57;;;;;;;7.03;3.30;;;6.40;99.90;;;;;;5015222;28;20042;-93
2021/04/17 19:36:23;;;;;;;7.73;3.37;;;6.30;99.90;;;;;;5019542;28;20049;-92
2021/04/17 19:38:50;;;;;;;5.13;3.07;;;6.30;99.90;;;;;;5017359;28;20050;-94
2021/04/17 19:41:17;;;;;;;8.87;3.20;;;6.30;99.90;;;;;;5020383;28;20023;-92
2021/04/17 19:43:43;;;;;;;7.00;3.40;;;6.20;99.90;;;;;;5012197;28;20034;-91
2021/04/17 19:46:10;;;;;;;8.63;3.17;;;6.20;99.90;;;;;;5005686;28;20017;-92
2021/04/17 19:48:36;;;;;;;6.10;2.90;;;6.10;99.90;;;;;;5018872;28;20057;-91
2021/04/17 19:51:03;;;;;;;7.30;3.40;;;6.20;99.90;;;;;;5017454;28;20082;-89
2021/04/17 19:53:29;;;;;;;6.53;3.17;;;6.10;99.90;;;;;;4995249;28;20030;-93
2021/04/17 19:55:55;;;;;;;6.70;3.33;;;6.30;99.90;;;;;;5023129;28;20046;-93
2021/04/17 19:58:22;;;;;;;6.47;3.40;;;6.20;99.90;;;;;;5016464;28;20014;-93
2021/04/17 20:00:48;;;;;;;7.03;3.20;;;6.00;99.90;;;;;;5015935;28;20031;-93
2021/04/17 20:03:15;;;;;;;6.17;3.37;;;6.00;99.90;;;;;;5020627;28;20041;-94
2021/04/17 20:05:45;;;;;;;5.77;3.07;;;6.00;99.90;;;;;;5017454;28;20018;-92
2021/04/17 20:08:13;;;;;;;8.00;3.90;;;6.00;99.90;;;;;;5012723;28;20038;-92
2021/04/17 20:10:39;;;;;;;9.73;3.67;;;6.00;99.90;;;;;;5013212;28;20010;-94
2021/04/17 20:13:08;;;;;;;7.97;3.30;;;6.00;99.90;;;;;;5017300;28;20054;-94
2021/04/17 20:15:34;;;;;;;6.90;3.60;;;5.90;99.90;;;;;;5023267;28;20192;-94
2021/04/17 20:18:04;;;;;;;6.70;3.37;;;5.90;99.90;;;;;;5019250;28;20014;-94
2021/04/17 20:20:32;;;;;;;7.43;3.53;;;5.90;99.90;;;;;;5013927;28;20085;-93
2021/04/17 20:22:58;;;;;;;10.40;3.40;;;6.00;99.90;;;;;;5014554;28;20035;-88
2021/04/17 20:30:34;;;;;;;6.40;3.27;;;5.80;99.90;;;;;;5488221;23;20071;-94
2021/04/17 20:40:46;;;;;;;6.57;3.63;;;5.70;99.90;;;;;;5498328;22;20054;-96
2021/04/17 20:43:13;;;;;;;8.87;3.80;;;5.70;99.90;;;;;;5830785;23;20288;-94
2021/04/17 20:45:39;;;;;;;7.27;3.90;;;5.70;99.90;;;;;;5056100;28;20021;-94
2021/04/17 20:55:53;;;;;;;7.33;3.53;;;5.70;99.90;;;;;;5787273;22;20048;-95
2021/04/17 20:58:19;;;;;;;8.30;3.20;;;5.60;99.90;;;;;;5054567;28;20014;-94
2021/04/17 21:00:53;;;;;;;8.83;3.70;;;5.60;99.90;;;;;;5055390;28;20005;-95
2021/04/17 21:03:49;;;;;;;7.17;3.40;;;5.50;99.90;;;;;;5055295;28;20007;-96
2021/04/17 21:06:19;;;;;;;7.63;3.70;;;5.70;99.90;;;;;;5033506;28;20014;-93
2021/04/17 21:08:48;;;;;;;6.40;3.40;;;5.50;99.90;;;;;;5039867;28;20021;-95
2021/04/17 21:11:15;;;;;;;8.27;3.60;;;5.60;99.90;;;;;;5039470;28;20006;-95
2021/04/17 21:13:45;;;;;;;9.43;3.73;;;5.40;99.90;;;;;;5038172;28;20030;-96
2021/04/17 21:16:11;;;;;;;5.80;3.20;;;5.30;99.90;;;;;;5020872;28;20045;-90
2021/04/17 21:18:41;;;;;;;8.50;3.30;;;5.30;99.90;;;;;;5033113;28;20022;-93
2021/04/17 21:21:06;;;;;;;6.23;3.00;;;5.40;99.90;;;;;;5037894;28;20014;-95
2021/04/17 21:23:33;;;;;;;5.63;3.03;;;5.30;99.90;;;;;;5036659;28;20040;-94
2021/04/17 21:25:59;;;;;;;8.43;3.40;;;5.20;99.90;;;;;;5036981;28;20037;-94
2021/04/17 21:28:29;;;;;;;7.33;3.37;;;5.50;99.90;;;;;;5038314;28;20018;-93
2021/04/17 21:31:05;;;;;;;8.63;3.80;;;5.10;99.90;;;;;;5204932;23;20102;-93
2021/04/17 21:33:31;;;;;;;7.83;3.73;;;5.20;99.90;;;;;;5045316;28;20096;-96
2021/04/17 21:35:58;;;;;;;6.77;3.47;;;5.20;99.90;;;;;;5037212;28;20029;-92
2021/04/17 21:38:25;;;;;;;7.40;3.63;;;5.40;99.90;;;;;;5028886;28;20057;-90
2021/04/17 21:40:50;;;;;;;9.20;4.53;;;5.20;99.90;;;;;;5011627;28;20034;-89
2021/04/17 21:43:37;;;;;;;9.13;4.30;;;5.10;99.90;;;;;;5007310;28;20027;-96
2021/04/17 21:46:03;;;;;;;7.03;3.83;;;5.00;99.90;;;;;;5018250;28;20019;-93
2021/04/17 21:48:39;;;;;;;10.30;4.30;;;5.20;99.90;;;;;;5024406;28;20027;-95
2021/04/17 21:51:05;;;;;;;8.87;4.27;;;5.10;99.90;;;;;;5037259;28;20006;-94
2021/04/17 21:53:31;;;;;;;8.33;4.70;;;5.10;99.90;;;;;;5016196;28;20868;-90
2021/04/17 21:55:59;;;;;;;9.27;4.67;;;5.10;99.90;;;;;;5015791;28;20076;-89
2021/04/17 21:58:26;;;;;;;10.23;4.73;;;5.00;99.90;;;;;;5015833;28;20034;-89
2021/04/17 22:00:53;;;;;;;8.83;4.90;;;5.10;99.90;;;;;;5016984;28;20026;-90
2021/04/17 22:03:20;;;;;;;8.17;4.40;;;5.10;99.90;;;;;;5015797;28;20033;-90
2021/04/17 22:05:49;;;;;;;7.57;4.30;;;5.10;99.90;;;;;;5015890;28;20028;-90
2021/04/17 22:08:16;;;;;;;6.60;3.90;;;5.00;99.90;;;;;;5016373;28;20114;-89
2021/04/17 22:10:42;;;;;;;5.93;3.70;;;5.00;99.90;;;;;;5010083;28;20030;-89
2021/04/17 22:13:08;;;;;;;7.67;4.03;;;4.90;99.90;;;;;;4996622;28;20030;-89
2021/04/17 22:15:35;;;;;;;8.17;3.60;;;4.90;99.90;;;;;;4995526;28;20054;-90
2021/04/17 22:18:01;;;;;;;6.93;4.13;;;4.90;99.90;;;;;;4995262;28;20398;-90
2021/04/17 22:20:33;;;;;;;6.23;3.17;;;4.80;99.90;;;;;;5012667;28;20029;-89
2021/04/17 22:22:59;;;;;;;6.07;2.90;;;4.80;99.90;;;;;;5015017;28;20026;-91
2021/04/17 22:25:25;;;;;;;6.33;3.17;;;4.70;99.90;;;;;;5014600;28;20373;-90
2021/04/17 22:27:51;;;;;;;5.87;2.90;;;4.70;99.90;;;;;;5014400;28;20030;-90
2021/04/17 22:30:18;;;;;;;5.77;3.43;;;4.60;99.90;;;;;;5013858;28;20025;-90
2021/04/17 22:32:44;;;;;;;5.43;2.47;;;4.70;99.90;;;;;;5015912;28;20037;-90
2021/04/17 22:35:10;;;;;;;5.27;3.17;;;4.60;99.90;;;;;;5011376;28;20025;-90
2021/04/17 22:37:38;;;;;;;5.10;2.77;;;4.60;99.90;;;;;;5000434;28;20050;-91
2021/04/17 22:40:12;;;;;;;4.43;2.40;;;4.50;99.90;;;;;;4995283;28;20031;-89
2021/04/17 22:42:38;;;;;;;5.17;2.50;;;4.40;99.90;;;;;;4996206;28;20363;-89
2021/04/17 22:45:05;;;;;;;4.83;2.70;;;4.40;99.90;;;;;;4996150;28;20035;-90
2021/04/17 22:47:31;;;;;;;4.77;2.70;;;4.50;99.90;;;;;;4998068;28;20057;-90
2021/04/17 22:49:57;;;;;;;5.20;2.77;;;4.50;99.90;;;;;;4996035;28;20026;-90
2021/04/17 22:52:23;;;;;;;6.83;3.27;;;4.50;99.90;;;;;;4998394;28;20080;-90
2021/04/17 22:54:49;;;;;;;6.13;3.07;;;4.40;99.90;;;;;;5020299;28;20045;-87
2021/04/17 22:57:14;;;;;;;4.77;2.97;;;4.30;99.90;;;;;;5031962;28;20027;-87
2021/04/17 22:59:40;;;;;;;6.00;3.30;;;4.30;99.90;;;;;;5019169;28;20038;-88
2021/04/17 23:02:07;;;;;;;7.07;3.50;;;4.40;99.90;;;;;;4997181;28;20034;-90
2021/04/17 23:04:34;;;;;;;6.00;3.10;;;4.40;99.90;;;;;;4994223;28;20134;-92
2021/04/17 23:07:00;;;;;;;7.50;3.23;;;4.30;99.90;;;;;;4996457;28;20030;-89
2021/04/17 23:09:26;;;;;;;7.30;3.47;;;4.30;99.90;;;;;;5003705;28;20482;-90
2021/04/17 23:11:51;;;;;;;8.63;3.20;;;4.30;99.90;;;;;;5014916;28;20094;-89
2021/04/17 23:14:17;;;;;;;7.27;3.53;;;4.40;99.90;;;;;;5014819;28;20049;-88
2021/04/17 23:16:43;;;;;;;5.93;4.07;;;4.30;99.90;;;;;;5014685;28;20061;-89
2021/04/17 23:19:09;;;;;;;6.90;3.87;;;4.60;99.90;;;;;;5017745;28;20040;-88
2021/04/17 23:21:35;;;;;;;6.93;3.50;;;4.30;99.90;;;;;;5013534;28;20026;-89
2021/04/17 23:24:01;;;;;;;8.03;4.20;;;4.30;99.90;;;;;;5013622;28;20124;-89
2021/04/17 23:26:27;;;;;;;6.07;3.30;;;4.30;99.90;;;;;;5013840;28;20030;-89
2021/04/17 23:28:53;;;;;;;7.43;3.60;;;4.30;99.90;;;;;;5007255;28;20038;-88
2021/04/17 23:31:20;;;;;;;7.50;3.90;;;4.30;99.90;;;;;;5004598;28;20125;-89
2021/04/17 23:33:45;;;;;;;5.77;2.97;;;4.20;99.90;;;;;;5012726;28;20029;-89
2021/04/17 23:36:11;;;;;;;6.37;2.90;;;4.20;99.90;;;;;;5011326;28;20080;-90
2021/04/17 23:38:37;;;;;;;6.20;3.17;;;4.30;99.90;;;;;;5014302;28;20105;-88
2021/04/17 23:41:03;;;;;;;5.93;3.33;;;4.30;99.90;;;;;;5008219;28;20043;-90
2021/04/17 23:43:28;;;;;;;5.77;3.03;;;4.20;99.90;;;;;;4993933;28;20038;-90
2021/04/17 23:45:54;;;;;;;6.10;3.10;;;4.20;99.90;;;;;;4993831;28;20026;-89
2021/04/17 23:48:20;;;;;;;5.63;3.20;;;4.20;99.90;;;;;;4993169;28;20041;-89
2021/04/17 23:50:49;;;;;;;6.00;3.17;;;4.20;99.90;;;;;;5012096;28;20096;-89
2021/04/17 23:53:14;;;;;;;6.43;3.33;;;4.20;99.90;;;;;;5012473;28;20030;-89
2021/04/17 23:55:40;;;;;;;5.50;2.80;;;4.20;99.90;;;;;;5014832;28;20391;-88
2021/04/17 23:58:07;;;;;;;6.80;3.80;;;4.20;99.90;;;;;;5004589;28;20454;-89
